createdAt,value
2019-02-17T00:02:47.380Z,11.20
2019-02-17T00:05:54.565Z,11.03
2019-02-17T00:09:01.867Z,11.95
2019-02-17T00:12:10.863Z,10.82
2019-02-17T00:15:18.450Z,12.07
2019-02-17T00:18:28.282Z,11.35
2019-02-17T00:21:35.323Z,12.88
2019-02-17T00:24:42.267Z,11.65
2019-02-17T00:27:49.130Z,10.08
2019-02-17T00:30:56.204Z,10.50
2019-02-17T00:34:03.267Z,9.60
2019-02-17T00:37:10.299Z,10.63
2019-02-17T00:40:17.313Z,10.40
2019-02-17T00:43:24.368Z,10.25
2019-02-17T00:46:31.356Z,9.08
2019-02-17T00:49:38.311Z,9.58
2019-02-17T00:52:45.355Z,9.23
2019-02-17T00:55:52.316Z,8.93
2019-02-17T00:59:09.411Z,9.58
2019-02-17T01:02:07.743Z,9.48
2019-02-17T01:05:14.686Z,8.50
2019-02-17T01:08:21.578Z,9.00
2019-02-17T01:11:28.602Z,8.83
2019-02-17T01:14:35.589Z,9.23
2019-02-17T01:17:42.560Z,9.53
2019-02-17T01:20:49.634Z,8.98
2019-02-17T01:23:56.580Z,7.55
2019-02-17T01:27:03.592Z,8.40
2019-02-17T01:30:13.792Z,8.33
2019-02-17T01:33:20.838Z,8.15
2019-02-17T01:36:30.549Z,7.55
2019-02-17T01:39:37.504Z,8.50
2019-02-17T01:42:44.427Z,8.53
2019-02-17T01:45:51.532Z,7.83
2019-02-17T01:48:58.581Z,8.08
2019-02-17T01:52:05.583Z,8.23
2019-02-17T01:55:12.670Z,8.08
2019-02-17T01:58:19.750Z,8.53
2019-02-17T02:01:26.755Z,8.38
2019-02-17T02:04:33.684Z,9.33
2019-02-17T02:07:40.622Z,9.83
2019-02-17T02:10:47.557Z,9.95
2019-02-17T02:13:54.573Z,7.92
2019-02-17T02:17:01.483Z,8.98
2019-02-17T02:20:09.816Z,8.78
2019-02-17T02:23:22.852Z,8.35
2019-02-17T02:26:29.854Z,7.25
2019-02-17T02:29:40.969Z,8.38
2019-02-17T02:32:45.277Z,8.35
2019-02-17T02:35:52.130Z,8.03
2019-02-17T02:38:59.357Z,7.05
2019-02-17T02:42:06.338Z,6.95
2019-02-17T02:45:13.460Z,7.95
2019-02-17T02:48:26.530Z,7.97
2019-02-17T02:51:33.429Z,8.30
2019-02-17T02:54:40.310Z,9.30
2019-02-17T02:57:47.267Z,7.22
2019-02-17T03:00:54.075Z,8.23
2019-02-17T03:04:00.937Z,7.28
2019-02-17T03:07:11.458Z,7.55
2019-02-17T03:10:18.403Z,7.87
2019-02-17T03:13:25.284Z,8.08
2019-02-17T03:16:32.161Z,7.20
2019-02-17T03:19:39.062Z,7.87
2019-02-17T03:22:45.930Z,6.97
2019-02-17T03:25:52.833Z,7.60
2019-02-17T03:28:59.655Z,8.25
2019-02-17T03:32:06.551Z,9.68
2019-02-17T03:35:13.473Z,7.90
2019-02-17T03:38:20.435Z,9.83
2019-02-17T03:41:27.777Z,7.72
2019-02-17T03:44:34.754Z,8.13
2019-02-17T03:47:41.732Z,9.08
2019-02-17T03:50:48.682Z,7.60
2019-02-17T03:54:14.626Z,9.00
2019-02-17T03:57:40.582Z,6.65
2019-02-17T04:00:47.517Z,9.45
2019-02-17T04:03:54.513Z,7.75
2019-02-17T04:07:01.742Z,9.38
2019-02-17T04:10:09.070Z,8.55
2019-02-17T04:13:16.204Z,9.58
2019-02-17T04:16:23.378Z,7.75
2019-02-17T04:19:30.449Z,9.33
2019-02-17T04:22:37.431Z,9.33
2019-02-17T04:25:44.346Z,10.18
2019-02-17T04:28:51.398Z,7.92
2019-02-17T04:32:01.521Z,7.55
2019-02-17T04:35:08.472Z,9.05
2019-02-17T04:38:15.377Z,8.60
2019-02-17T04:41:22.283Z,10.30
2019-02-17T04:44:29.453Z,8.88
2019-02-17T04:47:36.349Z,8.05
2019-02-17T04:50:43.805Z,8.65
2019-02-17T04:53:50.776Z,9.68
2019-02-17T04:56:57.985Z,8.68
2019-02-17T05:00:05.851Z,8.98
2019-02-17T05:03:13.223Z,9.30
2019-02-17T05:06:20.377Z,7.53
2019-02-17T05:09:27.484Z,9.20
2019-02-17T05:12:34.828Z,8.85
2019-02-17T05:15:41.957Z,9.20
2019-02-17T05:18:48.980Z,9.53
2019-02-17T05:21:55.948Z,8.45
2019-02-17T05:25:04.543Z,8.78
2019-02-17T05:28:11.559Z,9.30
2019-02-17T05:31:18.523Z,8.70
2019-02-17T05:34:25.433Z,8.23
2019-02-17T05:37:32.416Z,7.70
2019-02-17T05:40:58.471Z,9.93
2019-02-17T05:44:05.432Z,8.90
2019-02-17T05:47:12.583Z,8.53
2019-02-17T05:50:19.529Z,8.48
2019-02-17T05:53:26.614Z,8.68
2019-02-17T05:56:33.725Z,8.90
2019-02-17T05:59:40.935Z,9.00
2019-02-17T06:02:48.101Z,9.13
2019-02-17T06:05:55.004Z,9.58
2019-02-17T06:09:02.040Z,7.92
2019-02-17T06:12:09.454Z,8.03
2019-02-17T06:15:16.603Z,9.18
2019-02-17T06:18:23.562Z,7.78
2019-02-17T06:21:30.911Z,8.03
2019-02-17T06:24:38.445Z,8.03
2019-02-17T06:27:45.539Z,8.08
2019-02-17T06:30:52.870Z,8.68
2019-02-17T06:33:59.928Z,8.88
2019-02-17T06:37:07.513Z,8.78
2019-02-17T06:40:14.738Z,9.40
2019-02-17T06:43:22.047Z,8.98
2019-02-17T06:46:33.055Z,7.03
2019-02-17T06:49:40.046Z,8.15
2019-02-17T06:52:47.134Z,9.40
2019-02-17T06:56:05.280Z,10.68
2019-02-17T06:59:12.824Z,9.28
2019-02-17T07:02:20.018Z,8.90
2019-02-17T07:05:46.213Z,9.03
2019-02-17T07:08:53.394Z,9.28
2019-02-17T07:12:00.658Z,8.63
2019-02-17T07:15:07.761Z,10.10
2019-02-17T07:18:14.657Z,8.90
2019-02-17T07:21:21.589Z,9.95
2019-02-17T07:24:28.678Z,9.35
2019-02-17T07:27:35.498Z,8.70
2019-02-17T07:30:42.411Z,10.98
2019-02-17T07:33:49.649Z,8.60
2019-02-17T07:36:56.542Z,9.95
2019-02-17T07:40:03.466Z,7.85
2019-02-17T07:43:10.403Z,9.85
2019-02-17T07:46:17.421Z,9.88
2019-02-17T07:49:24.456Z,8.93
2019-02-17T07:52:31.404Z,10.43
2019-02-17T07:55:38.370Z,11.73
2019-02-17T07:58:45.316Z,10.75
2019-02-17T08:01:52.294Z,12.88
2019-02-17T08:04:59.290Z,11.53
2019-02-17T08:08:06.181Z,11.73
2019-02-17T08:11:13.101Z,11.15
2019-02-17T08:14:20.001Z,10.48
2019-02-17T08:17:26.962Z,10.55
2019-02-17T08:20:33.848Z,12.70
2019-02-17T08:23:41.719Z,9.90
2019-02-17T08:26:48.639Z,9.45
2019-02-17T08:29:55.578Z,9.45
2019-02-17T08:33:02.499Z,11.10
2019-02-17T08:36:09.624Z,14.45
2019-02-17T08:39:16.601Z,14.95
2019-02-17T08:42:23.547Z,18.00
2019-02-17T08:45:30.473Z,19.48
2019-02-17T08:48:37.480Z,12.98
2019-02-17T08:51:44.532Z,10.75
2019-02-17T08:54:51.562Z,12.03
2019-02-17T08:57:58.587Z,14.07
2019-02-17T09:01:05.572Z,13.97
2019-02-17T09:04:12.519Z,12.43
2019-02-17T09:07:19.520Z,12.47
2019-02-17T09:10:26.577Z,12.30
2019-02-17T09:13:33.573Z,12.73
2019-02-17T09:16:40.462Z,13.13
2019-02-17T09:19:47.505Z,13.30
2019-02-17T09:22:54.528Z,12.70
2019-02-17T09:26:01.496Z,12.60
2019-02-17T09:29:08.427Z,12.17
2019-02-17T09:32:16.626Z,12.27
2019-02-17T09:35:23.742Z,12.17
2019-02-17T09:38:30.727Z,13.00
2019-02-17T09:41:37.814Z,13.60
2019-02-17T09:44:44.764Z,13.50
2019-02-17T09:47:51.702Z,14.67
2019-02-17T09:50:58.688Z,14.70
2019-02-17T09:54:05.598Z,14.17
2019-02-17T09:57:12.657Z,15.17
2019-02-17T10:00:19.845Z,17.77
2019-02-17T10:03:28.621Z,15.77
2019-02-17T10:06:35.618Z,15.73
2019-02-17T10:09:42.870Z,14.30
2019-02-17T10:12:50.014Z,15.50
2019-02-17T10:15:57.067Z,16.23
2019-02-17T10:19:04.035Z,14.37
2019-02-17T10:22:11.040Z,14.80
2019-02-17T10:25:18.054Z,15.47
2019-02-17T10:28:24.967Z,17.57
2019-02-17T10:31:31.866Z,15.10
2019-02-17T10:34:38.874Z,14.63
2019-02-17T10:37:54.941Z,16.87
2019-02-17T10:41:01.936Z,15.27
2019-02-17T10:44:08.938Z,15.43
2019-02-17T10:47:15.976Z,16.67
2019-02-17T10:50:22.971Z,16.33
2019-02-17T10:53:29.939Z,16.10
2019-02-17T10:56:36.883Z,15.97
2019-02-17T10:59:43.811Z,14.87
2019-02-17T11:02:50.806Z,15.13
2019-02-17T11:06:07.544Z,14.93
2019-02-17T11:09:19.429Z,14.57
2019-02-17T11:12:24.246Z,13.90
2019-02-17T11:15:28.944Z,14.37
2019-02-17T11:18:33.558Z,15.10
2019-02-17T11:21:38.271Z,14.70
2019-02-17T11:24:42.885Z,14.47
2019-02-17T11:27:47.493Z,13.70
2019-02-17T11:30:52.161Z,15.50
2019-02-17T11:33:56.790Z,15.17
2019-02-17T11:37:01.413Z,12.90
2019-02-17T11:40:07.992Z,13.17
2019-02-17T11:43:12.667Z,12.70
2019-02-17T11:46:17.436Z,13.20
2019-02-17T11:49:22.027Z,12.53
2019-02-17T11:52:26.497Z,12.50
2019-02-17T11:55:31.017Z,12.73
2019-02-17T11:58:35.492Z,13.50
2019-02-17T12:01:40.029Z,11.63
2019-02-17T12:04:44.653Z,12.07
2019-02-17T12:07:49.161Z,11.93
2019-02-17T12:10:53.790Z,11.00
2019-02-17T12:13:58.375Z,10.13
2019-02-17T12:17:02.958Z,9.80
2019-02-17T12:20:32.812Z,9.23
2019-02-17T12:23:43.319Z,8.87
2019-02-17T12:27:12.604Z,8.97
2019-02-17T12:30:21.146Z,9.10
2019-02-17T12:33:25.691Z,8.70
2019-02-17T12:36:30.195Z,9.17
2019-02-17T12:39:34.793Z,9.13
2019-02-17T12:42:39.333Z,9.63
2019-02-17T12:45:43.876Z,9.37
2019-02-17T12:48:48.420Z,9.33
2019-02-17T12:51:52.933Z,8.87
2019-02-17T12:54:57.545Z,8.60
2019-02-17T12:58:02.095Z,9.27
2019-02-17T13:01:06.582Z,9.33
2019-02-17T13:04:11.087Z,8.73
2019-02-17T13:07:15.570Z,9.17
2019-02-17T13:10:20.192Z,8.57
2019-02-17T13:13:24.785Z,10.10
2019-02-17T13:16:29.280Z,9.20
2019-02-17T13:19:33.834Z,9.17
2019-02-17T13:22:38.352Z,8.80
2019-02-17T13:25:42.814Z,9.20
2019-02-17T13:28:47.384Z,9.07
2019-02-17T13:31:51.971Z,10.53
2019-02-17T13:34:56.442Z,9.90
2019-02-17T13:38:00.930Z,9.63
2019-02-17T13:41:05.385Z,9.27
2019-02-17T13:44:09.907Z,9.67
2019-02-17T13:47:14.387Z,9.60
2019-02-17T13:50:18.886Z,8.20
2019-02-17T13:53:23.454Z,9.93
2019-02-17T13:56:28.117Z,9.17
2019-02-17T13:59:32.636Z,8.93
2019-02-17T14:02:37.120Z,9.53
2019-02-17T14:05:41.716Z,10.00
2019-02-17T14:08:46.293Z,9.90
2019-02-17T14:11:50.820Z,9.90
2019-02-17T14:14:55.388Z,9.33
2019-02-17T14:17:59.982Z,10.33
2019-02-17T14:21:04.574Z,10.07
2019-02-17T14:24:09.129Z,10.30
2019-02-17T14:27:13.771Z,9.43
2019-02-17T14:30:18.562Z,9.47
2019-02-17T14:33:23.049Z,9.47
2019-02-17T14:36:27.661Z,10.23
2019-02-17T14:39:32.246Z,9.40
2019-02-17T14:42:36.812Z,11.10
2019-02-17T14:45:41.385Z,10.53
2019-02-17T14:48:45.972Z,10.30
2019-02-17T14:51:50.511Z,9.90
2019-02-17T14:54:55.098Z,9.87
2019-02-17T14:58:05.380Z,9.77
2019-02-17T15:01:05.871Z,10.23
2019-02-17T15:04:10.469Z,10.27
2019-02-17T15:07:17.786Z,10.07
2019-02-17T15:10:22.554Z,11.60
2019-02-17T15:13:27.129Z,10.27
2019-02-17T15:16:31.715Z,10.27
2019-02-17T15:19:36.240Z,10.40
2019-02-17T15:22:40.870Z,10.67
2019-02-17T15:25:45.500Z,10.13
2019-02-17T15:28:51.370Z,12.43
2019-02-17T15:31:56.240Z,10.93
2019-02-17T15:35:00.841Z,10.17
2019-02-17T15:38:05.545Z,10.53
2019-02-17T15:41:10.061Z,9.83
2019-02-17T15:44:14.719Z,10.60
2019-02-17T15:47:19.321Z,10.83
2019-02-17T15:50:23.896Z,11.67
2019-02-17T15:53:28.471Z,9.57
2019-02-17T15:56:33.030Z,11.97
2019-02-17T15:59:37.611Z,10.60
2019-02-17T16:02:42.114Z,11.40
2019-02-17T16:05:46.712Z,10.63
2019-02-17T16:08:52.351Z,17.57
2019-02-17T16:11:57.167Z,13.63
2019-02-17T16:15:01.928Z,13.50
2019-02-17T16:18:06.588Z,10.93
2019-02-17T16:21:11.161Z,10.20
2019-02-17T16:24:15.701Z,10.90
2019-02-17T16:27:20.295Z,11.90
2019-02-17T16:30:25.024Z,10.20
2019-02-17T16:33:29.647Z,10.33
2019-02-17T16:36:34.334Z,11.67
2019-02-17T16:39:38.956Z,11.30
2019-02-17T16:42:43.584Z,9.33
2019-02-17T16:45:48.165Z,10.33
2019-02-17T16:48:52.834Z,9.93
2019-02-17T16:51:57.554Z,10.47
2019-02-17T16:55:02.101Z,9.77
2019-02-17T16:58:06.625Z,11.50
2019-02-17T17:01:11.260Z,10.03
2019-02-17T17:04:15.909Z,21.07
2019-02-17T17:07:20.478Z,14.33
2019-02-17T17:10:25.083Z,12.03
2019-02-17T17:13:29.722Z,13.60
2019-02-17T17:16:36.327Z,11.40
2019-02-17T17:19:40.837Z,13.00
2019-02-17T17:22:45.366Z,11.30
2019-02-17T17:25:49.947Z,11.47
2019-02-17T17:28:54.435Z,10.73
2019-02-17T17:31:58.893Z,11.73
2019-02-17T17:35:03.376Z,11.50
2019-02-17T17:38:07.971Z,11.03
2019-02-17T17:41:12.535Z,12.67
2019-02-17T17:44:16.971Z,13.77
2019-02-17T17:47:21.454Z,13.97
2019-02-17T17:50:25.990Z,12.70
2019-02-17T17:53:30.488Z,13.67
2019-02-17T17:56:35.024Z,12.97
2019-02-17T17:59:39.521Z,12.40
2019-02-17T18:02:45.313Z,12.97
2019-02-17T18:05:49.850Z,12.70
2019-02-17T18:08:54.422Z,27.33
2019-02-17T18:11:58.959Z,16.07
2019-02-17T18:15:03.571Z,14.63
2019-02-17T18:18:08.146Z,13.83
2019-02-17T18:21:12.808Z,12.93
2019-02-17T18:24:17.251Z,12.93
2019-02-17T18:27:21.744Z,14.17
2019-02-17T18:30:26.252Z,14.03
2019-02-17T18:33:30.702Z,13.93
2019-02-17T18:36:35.386Z,13.63
2019-02-17T18:39:39.962Z,13.03
2019-02-17T18:42:44.962Z,13.50
2019-02-17T18:45:49.538Z,12.87
2019-02-17T18:48:54.130Z,13.17
2019-02-17T18:51:58.654Z,13.50
2019-02-17T18:55:03.315Z,13.97
2019-02-17T18:58:07.771Z,13.60
2019-02-17T19:01:12.587Z,13.47
2019-02-17T19:04:17.158Z,13.13
2019-02-17T19:07:24.140Z,14.23
2019-02-17T19:10:31.154Z,12.23
2019-02-17T19:13:38.178Z,14.10
2019-02-17T19:16:45.063Z,12.43
2019-02-17T19:19:53.065Z,12.50
2019-02-17T19:23:00.025Z,11.87
2019-02-17T19:26:06.934Z,11.30
2019-02-17T19:29:14.174Z,12.73
2019-02-17T19:32:21.230Z,12.03
2019-02-17T19:35:28.402Z,11.13
2019-02-17T19:38:36.786Z,13.20
2019-02-17T19:41:43.769Z,11.87
2019-02-17T19:44:50.750Z,11.83
2019-02-17T19:47:57.736Z,11.70
2019-02-17T19:51:04.707Z,12.87
2019-02-17T19:54:11.630Z,12.13
2019-02-17T19:57:18.527Z,12.00
2019-02-17T20:00:25.487Z,11.43
2019-02-17T20:03:44.149Z,12.30
2019-02-17T20:06:59.795Z,12.57
2019-02-17T20:10:06.913Z,11.30
2019-02-17T20:13:13.794Z,12.27
2019-02-17T20:16:21.435Z,11.77
2019-02-17T20:19:28.538Z,11.60
2019-02-17T20:22:35.437Z,11.27
2019-02-17T20:25:42.666Z,11.23
2019-02-17T20:28:49.613Z,10.43
2019-02-17T20:31:56.775Z,11.47
2019-02-17T20:35:03.834Z,11.90
2019-02-17T20:38:10.808Z,11.50
2019-02-17T20:41:17.963Z,11.80
2019-02-17T20:44:24.865Z,11.80
2019-02-17T20:47:31.970Z,12.03
2019-02-17T20:50:39.037Z,12.13
2019-02-17T20:53:45.998Z,12.37
2019-02-17T20:56:52.975Z,13.00
2019-02-17T20:59:59.815Z,14.83
2019-02-17T21:03:06.711Z,12.57
2019-02-17T21:06:14.090Z,14.40
2019-02-17T21:09:40.187Z,14.87
2019-02-17T21:12:47.099Z,12.60
2019-02-17T21:15:54.082Z,14.13
2019-02-17T21:19:01.060Z,12.07
2019-02-17T21:22:08.334Z,12.47
2019-02-17T21:25:15.707Z,12.90
2019-02-17T21:28:23.151Z,17.50
2019-02-17T21:31:30.308Z,12.83
2019-02-17T21:34:37.282Z,14.97
2019-02-17T21:37:44.274Z,12.83
2019-02-17T21:40:51.200Z,13.77
2019-02-17T21:43:58.276Z,12.93
2019-02-17T21:47:05.178Z,12.27
2019-02-17T21:50:12.155Z,13.23
2019-02-17T21:53:20.804Z,13.03
2019-02-17T21:56:29.229Z,16.80
2019-02-17T21:59:43.647Z,14.53
2019-02-17T22:02:50.821Z,12.80
2019-02-17T22:05:57.962Z,12.67
2019-02-17T22:09:06.878Z,12.53
2019-02-17T22:12:14.584Z,12.37
2019-02-17T22:15:21.769Z,12.13
2019-02-17T22:18:29.754Z,11.37
2019-02-17T22:21:37.108Z,12.70
2019-02-17T22:24:44.420Z,11.27
2019-02-17T22:27:51.492Z,12.13
2019-02-17T22:30:58.890Z,11.83
2019-02-17T22:34:06.138Z,13.13
2019-02-17T22:37:13.419Z,11.53
2019-02-17T22:40:25.624Z,12.13
2019-02-17T22:43:32.940Z,12.53
2019-02-17T22:46:40.150Z,12.95
2019-02-17T22:49:47.582Z,11.85
2019-02-17T22:52:54.744Z,11.80
2019-02-17T22:56:01.853Z,10.98
2019-02-17T22:59:08.896Z,11.78
2019-02-17T23:02:15.981Z,11.40
2019-02-17T23:05:23.308Z,10.75
2019-02-17T23:08:30.541Z,11.88
2019-02-17T23:11:37.616Z,11.75
2019-02-17T23:14:44.630Z,10.98
2019-02-17T23:17:51.770Z,13.65
2019-02-17T23:20:59.341Z,12.05
2019-02-17T23:24:06.540Z,12.45
2019-02-17T23:27:13.533Z,11.20
2019-02-17T23:30:20.559Z,12.93
2019-02-17T23:33:27.630Z,12.00
2019-02-17T23:36:34.641Z,12.95
2019-02-17T23:39:41.937Z,11.88
2019-02-17T23:42:48.951Z,12.82
2019-02-17T23:45:56.086Z,10.50
2019-02-17T23:49:03.133Z,12.45
2019-02-17T23:52:10.006Z,12.73
2019-02-17T23:55:16.922Z,13.65
2019-02-17T23:58:23.787Z,12.63
